createdAt,value
2022-08-31T00:00:37.710Z,13.04
2022-08-31T00:03:26.586Z,13.07
2022-08-31T00:06:03.489Z,12.99
2022-08-31T00:08:32.900Z,12.96
2022-08-31T00:11:01.060Z,12.96
2022-08-31T00:13:29.267Z,12.91
2022-08-31T00:15:57.686Z,12.89
2022-08-31T00:18:25.096Z,12.84
2022-08-31T00:20:52.348Z,12.81
2022-08-31T00:23:19.693Z,12.79
2022-08-31T00:25:49.391Z,12.79
2022-08-31T00:28:19.716Z,12.75
2022-08-31T00:30:47.462Z,12.73
2022-08-31T00:33:14.664Z,12.75
2022-08-31T00:35:44.137Z,12.76
2022-08-31T00:38:13.006Z,12.70
2022-08-31T00:40:47.359Z,12.70
2022-08-31T00:43:52.606Z,12.63
2022-08-31T00:46:28.136Z,12.65
2022-08-31T00:49:04.444Z,12.63
2022-08-31T00:51:49.715Z,12.64
2022-08-31T00:54:31.089Z,12.63
2022-08-31T00:56:59.796Z,12.56
2022-08-31T00:59:29.823Z,12.51
2022-08-31T01:01:57.054Z,12.52
2022-08-31T01:04:24.671Z,12.53
2022-08-31T01:06:53.440Z,12.48
2022-08-31T01:09:29.420Z,12.49
2022-08-31T01:11:57.152Z,12.53
2022-08-31T01:14:25.528Z,12.53
2022-08-31T01:16:56.328Z,12.44
2022-08-31T01:19:50.119Z,12.40
2022-08-31T01:22:54.292Z,12.42
2022-08-31T01:25:21.653Z,12.38
2022-08-31T01:27:48.821Z,12.39
2022-08-31T01:30:25.963Z,12.40
2022-08-31T01:32:53.267Z,12.40
2022-08-31T01:35:21.168Z,12.39
2022-08-31T01:37:48.649Z,12.37
2022-08-31T01:40:16.493Z,12.34
2022-08-31T01:42:43.875Z,12.33
2022-08-31T01:45:12.960Z,12.33
2022-08-31T01:47:41.640Z,12.33
2022-08-31T01:50:10.065Z,12.36
2022-08-31T01:52:40.226Z,12.33
2022-08-31T01:55:09.058Z,12.37
2022-08-31T01:57:36.819Z,12.39
2022-08-31T02:00:09.531Z,12.41
2022-08-31T02:02:37.335Z,12.44
2022-08-31T02:05:06.039Z,12.48
2022-08-31T02:07:33.295Z,12.47
2022-08-31T02:10:00.316Z,12.46
2022-08-31T02:12:27.434Z,12.49
2022-08-31T02:14:54.493Z,12.51
2022-08-31T02:17:21.664Z,12.54
2022-08-31T02:19:48.717Z,12.56
2022-08-31T02:22:15.836Z,12.63
2022-08-31T02:24:42.918Z,12.65
2022-08-31T02:27:10.046Z,12.61
2022-08-31T02:29:37.260Z,12.65
2022-08-31T02:32:05.222Z,12.67
2022-08-31T02:34:32.694Z,12.72
2022-08-31T02:36:59.775Z,12.74
2022-08-31T02:39:26.956Z,12.76
2022-08-31T02:41:54.707Z,12.75
2022-08-31T02:44:21.749Z,12.79
2022-08-31T02:46:48.889Z,12.79
2022-08-31T02:49:16.142Z,12.79
2022-08-31T02:51:44.717Z,12.80
2022-08-31T02:54:13.988Z,12.81
2022-08-31T02:56:41.399Z,12.83
2022-08-31T02:59:09.563Z,12.84
2022-08-31T03:01:38.192Z,12.84
2022-08-31T03:04:05.396Z,12.88
2022-08-31T03:06:32.971Z,12.89
2022-08-31T03:09:00.350Z,12.94
2022-08-31T03:11:28.312Z,13.00
2022-08-31T03:13:58.453Z,13.01
2022-08-31T03:16:26.327Z,12.99
2022-08-31T03:18:53.624Z,12.99
2022-08-31T03:21:20.708Z,12.98
2022-08-31T03:23:47.740Z,12.99
2022-08-31T03:26:14.715Z,13.00
2022-08-31T03:28:42.204Z,13.03
2022-08-31T03:31:11.282Z,13.06
2022-08-31T03:33:38.934Z,13.06
2022-08-31T03:36:07.277Z,13.06
2022-08-31T03:38:35.118Z,13.10
2022-08-31T03:41:02.977Z,13.12
2022-08-31T03:43:30.040Z,13.13
2022-08-31T03:45:57.327Z,13.12
2022-08-31T03:48:24.453Z,13.11
2022-08-31T03:50:51.581Z,13.10
2022-08-31T03:53:22.691Z,13.08
2022-08-31T03:55:50.708Z,13.09
2022-08-31T03:58:17.754Z,13.08
2022-08-31T04:00:44.856Z,13.07
2022-08-31T04:03:12.205Z,13.04
2022-08-31T04:05:45.537Z,13.02
2022-08-31T04:08:14.862Z,13.01
2022-08-31T04:10:46.408Z,12.95
2022-08-31T04:13:13.569Z,12.98
2022-08-31T04:15:40.803Z,12.95
2022-08-31T04:18:08.486Z,12.89
2022-08-31T04:20:43.500Z,12.83
2022-08-31T04:23:10.581Z,12.78
2022-08-31T04:25:42.033Z,12.70
2022-08-31T04:28:10.324Z,12.67
2022-08-31T04:30:43.386Z,12.67
2022-08-31T04:33:10.648Z,12.63
2022-08-31T04:35:42.213Z,12.63
2022-08-31T04:38:12.067Z,12.61
2022-08-31T04:40:43.831Z,12.62
2022-08-31T04:43:11.414Z,12.60
2022-08-31T04:45:44.635Z,12.59
2022-08-31T04:48:13.418Z,12.59
2022-08-31T04:50:42.744Z,12.58
2022-08-31T04:53:11.479Z,12.59
2022-08-31T04:55:43.721Z,12.63
2022-08-31T04:58:13.133Z,12.59
2022-08-31T05:00:44.233Z,12.60
2022-08-31T05:03:11.494Z,12.60
2022-08-31T05:05:42.203Z,12.59
2022-08-31T05:08:09.624Z,12.57
2022-08-31T05:10:36.790Z,12.60
2022-08-31T05:13:03.943Z,12.62
2022-08-31T05:15:31.097Z,12.67
2022-08-31T05:17:58.446Z,12.68
2022-08-31T05:20:25.870Z,12.72
2022-08-31T05:22:52.868Z,12.82
2022-08-31T05:25:20.039Z,12.96
2022-08-31T05:27:48.139Z,13.19
2022-08-31T05:30:15.388Z,13.39
2022-08-31T05:32:42.496Z,13.46
2022-08-31T05:35:09.529Z,13.46
2022-08-31T05:37:36.758Z,13.35
2022-08-31T05:40:05.484Z,13.38
2022-08-31T05:42:32.730Z,13.46
2022-08-31T05:45:00.017Z,13.56
2022-08-31T05:47:27.274Z,13.57
2022-08-31T05:49:54.365Z,13.55
2022-08-31T05:52:24.956Z,13.54
2022-08-31T05:54:52.358Z,13.51
2022-08-31T05:57:21.442Z,13.48
2022-08-31T05:59:51.648Z,13.50
2022-08-31T06:02:18.762Z,13.55
2022-08-31T06:04:45.915Z,13.77
2022-08-31T06:07:12.998Z,13.98
2022-08-31T06:09:40.913Z,14.23
2022-08-31T06:12:13.134Z,14.47
2022-08-31T06:14:44.239Z,14.73
2022-08-31T06:17:13.251Z,14.86
2022-08-31T06:19:40.243Z,14.99
2022-08-31T06:22:07.304Z,15.03
2022-08-31T06:24:34.369Z,15.15
2022-08-31T06:27:04.320Z,15.23
2022-08-31T06:29:31.943Z,15.34
2022-08-31T06:32:00.708Z,15.55
2022-08-31T06:34:29.271Z,15.78
2022-08-31T06:36:56.455Z,16.01
2022-08-31T06:39:24.109Z,16.13
2022-08-31T06:41:52.781Z,16.35
2022-08-31T06:44:24.044Z,16.35
2022-08-31T06:46:53.129Z,16.24
2022-08-31T06:49:20.633Z,16.27
2022-08-31T06:51:47.802Z,16.40
2022-08-31T06:54:29.472Z,16.46
2022-08-31T06:56:59.586Z,16.58
2022-08-31T06:59:29.925Z,16.75
2022-08-31T07:02:03.056Z,16.97
2022-08-31T07:04:38.800Z,17.14
2022-08-31T07:07:11.494Z,17.00
2022-08-31T07:09:41.275Z,17.23
2022-08-31T07:12:12.250Z,17.45
2022-08-31T07:14:39.814Z,17.64
2022-08-31T07:17:08.499Z,17.59
2022-08-31T07:19:35.789Z,17.72
2022-08-31T07:22:09.501Z,17.77
2022-08-31T07:24:40.488Z,17.99
2022-08-31T07:27:16.607Z,18.16
2022-08-31T07:29:43.993Z,18.49
2022-08-31T07:32:16.291Z,18.53
2022-08-31T07:34:44.472Z,18.83
2022-08-31T07:37:30.423Z,18.70
2022-08-31T07:40:16.369Z,18.46
2022-08-31T07:42:47.096Z,18.66
2022-08-31T07:45:29.046Z,18.73
2022-08-31T07:47:59.981Z,18.82
2022-08-31T07:50:30.809Z,18.71
2022-08-31T07:52:59.227Z,18.90
2022-08-31T07:55:29.431Z,19.14
2022-08-31T07:57:57.375Z,19.29
2022-08-31T08:00:30.026Z,19.11
2022-08-31T08:03:07.923Z,19.08
2022-08-31T08:05:38.886Z,19.33
2022-08-31T08:08:13.541Z,19.27
2022-08-31T08:10:46.695Z,19.42
2022-08-31T08:13:20.448Z,19.50
2022-08-31T08:15:51.872Z,19.66
2022-08-31T08:18:20.499Z,19.88
2022-08-31T08:20:48.344Z,20.00
2022-08-31T08:23:26.690Z,19.76
2022-08-31T08:26:01.229Z,19.60
2022-08-31T08:28:40.056Z,19.45
2022-08-31T08:31:18.966Z,19.77
2022-08-31T08:33:46.819Z,19.80
2022-08-31T08:36:17.144Z,19.87
2022-08-31T08:38:47.640Z,20.02
2022-08-31T08:41:25.291Z,19.97
2022-08-31T08:44:00.760Z,20.41
2022-08-31T08:46:48.085Z,20.35
2022-08-31T08:49:49.838Z,20.29
2022-08-31T08:52:41.635Z,20.59
2022-08-31T08:55:23.986Z,20.18
2022-08-31T08:57:52.197Z,20.09
2022-08-31T09:00:28.632Z,20.28
2022-08-31T09:03:04.582Z,20.35
2022-08-31T09:06:08.051Z,20.15
2022-08-31T09:08:56.277Z,20.16
2022-08-31T09:11:55.035Z,20.47
2022-08-31T09:14:53.975Z,20.21
2022-08-31T09:18:15.389Z,19.81
2022-08-31T09:20:42.462Z,19.57
2022-08-31T09:23:10.114Z,19.66
2022-08-31T09:25:52.286Z,19.72
2022-08-31T09:28:49.847Z,19.62
2022-08-31T09:31:41.361Z,19.52
2022-08-31T09:34:32.068Z,19.63
2022-08-31T09:37:25.238Z,20.04
2022-08-31T09:39:54.830Z,20.40
2022-08-31T09:42:34.101Z,20.68
2022-08-31T09:45:25.616Z,21.09
2022-08-31T09:47:58.458Z,21.19
2022-08-31T09:50:38.949Z,21.25
2022-08-31T09:53:48.059Z,21.37
2022-08-31T09:56:24.026Z,21.31
2022-08-31T09:59:05.062Z,21.54
2022-08-31T10:01:46.371Z,21.68
2022-08-31T10:04:36.933Z,21.61
2022-08-31T10:08:04.539Z,21.69
2022-08-31T10:10:41.120Z,21.93
2022-08-31T10:13:24.532Z,21.82
2022-08-31T10:15:59.694Z,21.82
2022-08-31T10:18:57.973Z,21.99
2022-08-31T10:22:01.326Z,22.00
2022-08-31T10:24:46.305Z,21.77
2022-08-31T10:27:32.361Z,21.58
2022-08-31T10:30:27.584Z,21.37
2022-08-31T10:33:23.862Z,21.12
2022-08-31T10:36:01.392Z,21.22
2022-08-31T10:38:41.468Z,21.71
2022-08-31T10:41:17.331Z,21.39
2022-08-31T10:44:18.275Z,21.74
2022-08-31T10:46:46.097Z,21.80
2022-08-31T10:49:14.083Z,21.44
2022-08-31T10:52:29.421Z,21.32
2022-08-31T10:55:25.722Z,20.92
2022-08-31T10:58:27.448Z,20.66
2022-08-31T11:01:23.077Z,20.52
2022-08-31T11:04:47.112Z,20.36
2022-08-31T11:07:43.389Z,20.15
2022-08-31T11:10:54.414Z,20.13
2022-08-31T11:14:17.210Z,20.13
2022-08-31T11:17:18.959Z,20.22
2022-08-31T11:20:06.026Z,20.35
2022-08-31T11:23:45.002Z,20.38
2022-08-31T11:26:57.174Z,20.76
2022-08-31T11:30:06.662Z,20.69
2022-08-31T11:32:51.035Z,20.46
2022-08-31T11:35:56.023Z,20.45
2022-08-31T11:38:54.570Z,20.67
2022-08-31T11:41:39.678Z,20.94
2022-08-31T11:44:30.504Z,21.01
2022-08-31T11:47:35.717Z,21.22
2022-08-31T11:50:32.794Z,21.18
2022-08-31T11:53:38.204Z,21.38
2022-08-31T11:56:06.718Z,21.35
2022-08-31T11:58:42.444Z,21.08
2022-08-31T12:01:12.326Z,20.78
2022-08-31T12:03:55.831Z,20.77
2022-08-31T12:06:25.901Z,20.80
2022-08-31T12:09:36.985Z,20.64
2022-08-31T12:12:52.057Z,20.86
2022-08-31T12:15:39.082Z,21.37
2022-08-31T12:19:08.321Z,21.65
2022-08-31T12:22:22.830Z,22.02
2022-08-31T12:25:35.456Z,21.84
2022-08-31T12:28:54.339Z,21.19
2022-08-31T12:31:21.491Z,20.91
2022-08-31T12:34:06.832Z,20.90
2022-08-31T12:36:37.434Z,20.88
2022-08-31T12:39:21.319Z,20.77
2022-08-31T12:42:05.361Z,21.02
2022-08-31T12:44:46.702Z,21.29
2022-08-31T12:47:38.010Z,21.47
2022-08-31T12:50:18.223Z,21.79
2022-08-31T12:53:27.383Z,21.80
2022-08-31T12:56:21.458Z,21.78
2022-08-31T12:59:56.928Z,22.02
2022-08-31T13:02:20.546Z,21.90
2022-08-31T13:04:49.258Z,21.77
2022-08-31T13:07:35.710Z,21.68
2022-08-31T13:10:15.494Z,21.70
2022-08-31T13:13:04.942Z,21.99
2022-08-31T13:15:42.362Z,21.96
2022-08-31T13:18:28.293Z,22.06
2022-08-31T13:21:09.548Z,21.70
2022-08-31T13:23:43.348Z,21.35
2022-08-31T13:26:25.576Z,21.41
2022-08-31T13:29:07.715Z,21.58
2022-08-31T13:31:56.647Z,21.84
2022-08-31T13:34:25.018Z,22.11
2022-08-31T13:36:59.841Z,22.20
2022-08-31T13:39:42.869Z,21.71
2022-08-31T13:42:24.630Z,21.68
2022-08-31T13:45:09.836Z,21.51
2022-08-31T13:47:48.898Z,21.14
2022-08-31T13:50:56.324Z,21.33
2022-08-31T13:54:03.901Z,21.92
2022-08-31T13:56:51.010Z,22.23
2022-08-31T13:59:23.938Z,22.47
2022-08-31T14:02:05.809Z,22.17
2022-08-31T14:04:43.985Z,22.37
2022-08-31T14:07:20.524Z,21.92
2022-08-31T14:10:15.083Z,21.46
2022-08-31T14:13:15.482Z,20.94
2022-08-31T14:16:02.361Z,20.60
2022-08-31T14:18:45.341Z,20.40
2022-08-31T14:21:21.930Z,20.23
2022-08-31T14:24:02.681Z,20.26
2022-08-31T14:26:44.237Z,20.46
2022-08-31T14:29:16.770Z,21.15
2022-08-31T14:31:56.304Z,21.89
2022-08-31T14:34:36.935Z,22.56
2022-08-31T14:37:19.903Z,22.97
2022-08-31T14:39:55.439Z,23.50
2022-08-31T14:42:30.299Z,23.70
2022-08-31T14:45:06.989Z,23.65
2022-08-31T14:47:44.079Z,23.64
2022-08-31T14:50:24.854Z,23.67
2022-08-31T14:52:55.640Z,23.70
2022-08-31T14:55:28.450Z,23.76
2022-08-31T14:58:08.487Z,23.06
2022-08-31T15:00:49.757Z,22.20
2022-08-31T15:03:24.466Z,21.84
2022-08-31T15:05:51.645Z,21.58
2022-08-31T15:08:23.262Z,21.14
2022-08-31T15:11:06.317Z,20.80
2022-08-31T15:16:04.396Z,20.59
2022-08-31T15:18:36.666Z,20.54
2022-08-31T15:21:06.465Z,20.47
2022-08-31T15:23:34.128Z,20.41
2022-08-31T15:26:06.437Z,20.60
2022-08-31T15:28:41.957Z,21.46
2022-08-31T15:31:28.630Z,22.62
2022-08-31T15:34:01.404Z,23.36
2022-08-31T15:36:28.595Z,23.72
2022-08-31T15:38:59.025Z,24.51
2022-08-31T15:41:29.313Z,25.50
2022-08-31T15:43:57.216Z,26.12
2022-08-31T15:46:43.109Z,26.20
2022-08-31T15:49:11.364Z,26.03
2022-08-31T15:51:49.004Z,25.62
2022-08-31T15:54:22.928Z,25.32
2022-08-31T15:56:55.469Z,24.75
2022-08-31T15:59:25.152Z,24.00
2022-08-31T16:01:53.150Z,23.21
2022-08-31T16:04:23.506Z,22.38
2022-08-31T16:06:54.959Z,22.17
2022-08-31T16:09:22.923Z,21.89
2022-08-31T16:11:51.763Z,21.72
2022-08-31T16:14:20.597Z,21.46
2022-08-31T16:16:50.477Z,21.24
2022-08-31T16:19:34.545Z,21.09
2022-08-31T16:22:06.385Z,20.87
2022-08-31T16:24:38.611Z,20.68
2022-08-31T16:27:16.407Z,20.61
2022-08-31T16:29:46.360Z,20.44
2022-08-31T16:32:14.131Z,20.37
2022-08-31T16:34:42.685Z,20.33
2022-08-31T16:37:10.629Z,20.25
2022-08-31T16:39:47.255Z,20.16
2022-08-31T16:42:17.904Z,20.07
2022-08-31T16:44:47.868Z,19.91
2022-08-31T16:47:18.810Z,19.79
2022-08-31T16:49:47.770Z,19.78
2022-08-31T16:52:22.091Z,19.80
2022-08-31T16:54:53.293Z,19.68
2022-08-31T16:57:27.267Z,19.50
2022-08-31T16:59:57.473Z,19.47
2022-08-31T17:02:28.454Z,19.40
2022-08-31T17:05:00.702Z,19.27
2022-08-31T17:07:29.092Z,19.19
2022-08-31T17:10:07.085Z,19.06
2022-08-31T17:12:34.918Z,18.94
2022-08-31T17:15:03.801Z,18.84
2022-08-31T17:17:32.884Z,18.77
2022-08-31T17:20:00.820Z,18.75
2022-08-31T17:22:33.058Z,18.60
2022-08-31T17:25:04.599Z,18.57
2022-08-31T17:27:35.361Z,18.50
2022-08-31T17:30:07.301Z,18.44
2022-08-31T17:32:41.792Z,18.41
2022-08-31T17:35:18.290Z,18.31
2022-08-31T17:37:48.390Z,18.23
2022-08-31T17:40:16.845Z,18.16
2022-08-31T17:42:44.485Z,18.21
2022-08-31T17:45:11.787Z,18.07
2022-08-31T17:47:39.136Z,17.98
2022-08-31T17:50:07.230Z,17.85
2022-08-31T17:52:34.526Z,17.80
2022-08-31T17:55:01.909Z,17.82
2022-08-31T17:57:29.693Z,17.69
2022-08-31T17:59:56.786Z,17.61
2022-08-31T18:02:34.748Z,17.52
2022-08-31T18:05:09.400Z,17.55
2022-08-31T18:07:38.273Z,17.42
2022-08-31T18:10:07.201Z,17.32
2022-08-31T18:12:41.011Z,17.22
2022-08-31T18:15:12.851Z,17.13
2022-08-31T18:17:40.075Z,17.08
2022-08-31T18:20:08.482Z,17.00
2022-08-31T18:22:35.550Z,16.89
2022-08-31T18:25:02.784Z,16.86
2022-08-31T18:27:29.840Z,16.88
2022-08-31T18:29:58.941Z,16.86
2022-08-31T18:32:28.852Z,16.88
2022-08-31T18:34:57.371Z,16.83
2022-08-31T18:37:25.838Z,16.71
2022-08-31T18:40:13.165Z,16.61
2022-08-31T18:42:59.011Z,16.58
2022-08-31T18:45:28.809Z,16.53
2022-08-31T18:48:24.773Z,16.43
2022-08-31T18:50:50.140Z,16.38
2022-08-31T18:53:26.782Z,16.27
2022-08-31T18:55:55.925Z,16.18
2022-08-31T18:58:23.099Z,16.08
2022-08-31T19:00:59.481Z,16.11
2022-08-31T19:03:28.470Z,16.07
2022-08-31T19:05:57.069Z,16.05
2022-08-31T19:08:26.489Z,16.02
2022-08-31T19:10:56.302Z,15.91
2022-08-31T19:13:26.325Z,15.87
2022-08-31T19:15:55.886Z,15.85
2022-08-31T19:18:26.427Z,15.84
2022-08-31T19:20:53.651Z,15.80
2022-08-31T19:23:20.833Z,15.77
2022-08-31T19:25:48.406Z,15.77
2022-08-31T19:28:15.876Z,15.74
2022-08-31T19:30:48.726Z,15.72
2022-08-31T19:33:16.308Z,15.71
2022-08-31T19:35:44.358Z,15.68
2022-08-31T19:38:12.075Z,15.66
2022-08-31T19:40:40.218Z,15.62
2022-08-31T19:45:54.551Z,15.64
2022-08-31T19:48:23.626Z,15.65
2022-08-31T19:50:52.613Z,15.54
2022-08-31T19:53:21.732Z,15.52
2022-08-31T19:55:53.533Z,15.46
2022-08-31T19:58:26.638Z,15.40
2022-08-31T20:01:02.166Z,15.39
2022-08-31T20:03:34.270Z,15.41
2022-08-31T20:06:09.950Z,15.37
2022-08-31T20:08:37.647Z,15.33
2022-08-31T20:11:09.601Z,15.33
2022-08-31T20:13:38.925Z,15.37
2022-08-31T20:16:07.771Z,15.34
2022-08-31T20:18:40.285Z,15.35
2022-08-31T20:21:24.299Z,15.26
2022-08-31T20:23:56.845Z,15.24
2022-08-31T20:26:33.006Z,15.27
2022-08-31T20:29:09.383Z,15.24
2022-08-31T20:31:41.791Z,15.16
2022-08-31T20:34:18.394Z,15.14
2022-08-31T20:36:51.913Z,15.04
2022-08-31T20:39:22.896Z,15.02
2022-08-31T20:41:54.608Z,15.02
2022-08-31T20:44:34.869Z,14.97
2022-08-31T20:47:29.428Z,14.91
2022-08-31T20:50:01.973Z,14.83
2022-08-31T20:52:37.146Z,14.77
2022-08-31T20:55:07.605Z,14.83
2022-08-31T20:57:39.849Z,14.76
2022-08-31T21:00:10.768Z,14.77
2022-08-31T21:02:39.937Z,14.72
2022-08-31T21:07:58.316Z,14.58
2022-08-31T21:10:36.801Z,14.56
2022-08-31T21:13:12.576Z,14.52
2022-08-31T21:15:45.554Z,14.46
2022-08-31T21:18:17.562Z,14.48
2022-08-31T21:20:46.987Z,14.52
2022-08-31T21:23:14.162Z,14.53
2022-08-31T21:25:46.161Z,14.55
2022-08-31T21:28:18.053Z,14.62
2022-08-31T21:30:49.451Z,14.60
2022-08-31T21:33:16.787Z,14.61
2022-08-31T21:35:43.843Z,14.64
2022-08-31T21:38:13.103Z,14.74
2022-08-31T21:40:50.984Z,14.72
2022-08-31T21:43:18.641Z,14.74
2022-08-31T21:45:46.108Z,14.76
2022-08-31T21:48:13.090Z,14.74
2022-08-31T21:50:40.072Z,14.76
2022-08-31T21:53:07.111Z,14.76
2022-08-31T21:55:38.717Z,14.83
2022-08-31T21:58:05.759Z,14.82
2022-08-31T22:00:34.426Z,14.83
2022-08-31T22:03:02.444Z,14.82
2022-08-31T22:05:31.737Z,14.78
2022-08-31T22:07:58.777Z,14.78
2022-08-31T22:10:25.748Z,14.77
2022-08-31T22:12:52.776Z,14.80
2022-08-31T22:15:24.094Z,14.81
2022-08-31T22:18:22.901Z,14.80
2022-08-31T22:20:42.518Z,14.78
2022-08-31T22:23:11.288Z,14.76
2022-08-31T22:25:38.754Z,14.75
2022-08-31T22:28:07.516Z,14.90
2022-08-31T22:30:36.342Z,14.87
2022-08-31T22:33:04.599Z,14.83
2022-08-31T22:35:31.745Z,14.82
2022-08-31T22:37:58.760Z,14.81
2022-08-31T22:40:25.891Z,14.78
2022-08-31T22:42:54.943Z,14.82
2022-08-31T22:45:23.862Z,14.82
2022-08-31T22:47:50.985Z,14.84
2022-08-31T22:50:18.273Z,14.85
2022-08-31T22:52:46.551Z,14.85
2022-08-31T22:55:13.730Z,14.86
2022-08-31T22:57:40.878Z,14.84
2022-08-31T23:00:12.476Z,14.83
2022-08-31T23:02:45.318Z,14.83
2022-08-31T23:05:18.787Z,14.79
2022-08-31T23:07:45.823Z,14.73
2022-08-31T23:10:18.630Z,14.75
2022-08-31T23:12:51.686Z,14.77
2022-08-31T23:15:22.971Z,14.74
2022-08-31T23:17:51.835Z,14.72
2022-08-31T23:20:24.504Z,14.69
2022-08-31T23:22:55.399Z,14.66
2022-08-31T23:25:24.782Z,14.66
2022-08-31T23:27:53.434Z,14.69
2022-08-31T23:30:23.112Z,14.63
2022-08-31T23:32:50.641Z,14.56
2022-08-31T23:35:18.552Z,14.55
2022-08-31T23:37:46.445Z,14.57
2022-08-31T23:40:16.096Z,14.55
2022-08-31T23:42:43.257Z,14.53
2022-08-31T23:45:11.327Z,14.57
2022-08-31T23:47:39.385Z,14.52
2022-08-31T23:50:08.501Z,14.51
2022-08-31T23:52:37.665Z,14.55
2022-08-31T23:55:07.052Z,14.44
2022-08-31T23:57:37.280Z,14.38
